Time;durP1;ratioP1;P1;durP2;ratioP2;P2;SDS_P1;SDS_P2;PMS_P1;PMS_P2;Temp;Humidity;BMP_temperature;BMP_pressure;BME280_temperature;BME280_humidity;BME280_pressure;Samples;Min_cycle;Max_cycle;Signal;HPM_P1;HPM_P2
2022/08/09 00:03:40;;;;;;;7.93;4.47;;;;;;;20.33;61.62;100258.53;7631160;32;38777;-73
2022/08/09 00:08:16;;;;;;;7.82;4.62;;;;;;;20.31;62.01;100260.03;7630263;32;37071;-73
2022/08/09 00:12:48;;;;;;;6.95;4.40;;;;;;;20.35;62.07;100263.75;7631301;32;39308;-73
2022/08/09 00:17:07;;;;;;;8.52;3.90;;;;;;;20.33;62.04;100268.81;7631124;32;40142;-74
2022/08/09 00:21:44;;;;;;;6.82;4.20;;;;;;;20.25;62.40;100264.91;7630676;32;39249;-73
2022/08/09 00:26:12;;;;;;;7.07;4.10;;;;;;;20.22;62.62;100258.06;7630794;32;38274;-73
2022/08/09 00:30:29;;;;;;;6.28;4.57;;;;;;;20.20;63.04;100260.34;7630955;32;39305;-73
2022/08/09 00:34:45;;;;;;;10.25;4.80;;;;;;;20.33;62.44;100263.28;7630423;32;40101;-73
2022/08/09 00:39:08;;;;;;;8.98;5.00;;;;;;;20.41;62.53;100256.94;7630613;32;38860;-73
2022/08/09 00:43:44;;;;;;;8.52;4.18;;;;;;;20.17;62.98;100274.03;7604076;32;37167;-73
2022/08/09 00:48:20;;;;;;;7.07;3.90;;;;;;;20.39;62.10;100268.31;7606076;32;39731;-72
2022/08/09 00:52:37;;;;;;;10.25;4.37;;;;;;;20.39;62.18;100273.06;7630453;32;39929;-73
2022/08/09 00:56:53;;;;;;;8.88;4.40;;;;;;;20.47;61.89;100260.34;7629080;32;38087;-73
2022/08/09 01:01:17;;;;;;;9.13;5.12;;;;;;;20.51;61.81;100259.38;7630077;32;37404;-72
2022/08/09 01:05:43;;;;;;;5.90;4.15;;;;;;;20.48;62.21;100257.25;7616948;32;39220;-74
2022/08/09 01:10:30;;;;;;;7.32;4.00;;;;;;;20.35;62.98;100269.28;7618016;32;39911;-73
2022/08/09 01:14:54;;;;;;;6.10;3.58;;;;;;;20.41;62.93;100263.28;7629760;32;38080;-73
2022/08/09 01:19:22;;;;;;;9.48;4.00;;;;;;;20.22;63.70;100266.38;7630127;32;36256;-73
2022/08/09 01:24:25;;;;;;;7.00;3.70;;;;;;;20.43;62.84;100255.44;7622267;32;39375;-73
2022/08/09 01:28:44;;;;;;;7.78;4.15;;;;;;;20.42;62.85;100255.78;7633511;32;39893;-73
2022/08/09 01:33:01;;;;;;;8.57;4.40;;;;;;;20.40;62.71;100250.59;7619000;32;37700;-73
2022/08/09 01:37:19;;;;;;;9.25;4.57;;;;;;;20.42;62.86;100248.28;7633064;32;37057;-73
2022/08/09 01:41:56;;;;;;;7.85;3.78;;;;;;;20.21;63.73;100258.38;7622095;32;40706;-73
2022/08/09 01:46:26;;;;;;;8.48;4.72;;;;;;;20.25;63.55;100260.19;7620248;32;41154;-73
2022/08/09 01:50:47;;;;;;;8.50;4.72;;;;;;;20.18;63.45;100257.09;7620756;32;37959;-73
2022/08/09 01:55:11;;;;;;;9.88;4.85;;;;;;;20.13;63.06;100257.25;7620958;32;37779;-73
2022/08/09 01:59:28;;;;;;;11.43;5.43;;;;;;;20.23;62.54;100248.62;7633148;32;40193;-73
2022/08/09 02:03:48;;;;;;;7.25;4.97;;;;;;;20.08;62.76;100249.12;7631744;32;40854;-74
2022/08/09 02:08:08;;;;;;;7.95;5.00;;;;;;;20.12;62.48;100261.16;7632939;32;38884;-73
2022/08/09 02:12:45;;;;;;;11.77;5.57;;;;;;;20.06;62.31;100254.16;7621610;32;37354;-73
2022/08/09 02:17:05;;;;;;;7.32;4.95;;;;;;;20.19;61.49;100244.88;7632858;32;39166;-73
2022/08/09 02:21:46;;;;;;;9.45;5.95;;;;;;;20.14;61.62;100247.78;7632460;32;41385;-73
2022/08/09 02:26:13;;;;;;;9.15;6.07;;;;;;;20.00;62.17;100247.16;7619650;32;37967;-73
2022/08/09 02:30:48;;;;;;;12.00;6.27;;;;;;;19.92;62.55;100245.19;7620764;32;35980;-72
2022/08/09 02:35:11;;;;;;;11.57;6.03;;;;;;;19.88;62.92;100251.34;7619523;32;39165;-73
2022/08/09 02:39:39;;;;;;;8.45;5.82;;;;;;;19.93;62.69;100246.81;7632556;32;40879;-73
2022/08/09 02:44:04;;;;;;;9.38;6.18;;;;;;;19.81;63.13;100244.69;7619833;32;37960;-72
2022/08/09 02:48:30;;;;;;;10.23;6.37;;;;;;;19.87;62.95;100248.94;7620526;32;37641;-73
2022/08/09 02:52:56;;;;;;;11.30;5.97;;;;;;;19.64;63.79;100253.72;7632367;32;39220;-73
2022/08/09 02:57:14;;;;;;;7.95;5.53;;;;;;;19.87;62.82;100246.97;7619925;32;39890;-73
2022/08/09 03:01:39;;;;;;;9.20;5.95;;;;;;;19.91;62.45;100251.88;7632110;32;38099;-73
2022/08/09 03:06:16;;;;;;;9.55;6.00;;;;;;;19.87;62.38;100238.69;7631581;32;37496;-73
2022/08/09 03:10:34;;;;;;;11.43;6.00;;;;;;;20.04;61.55;100226.81;7618683;32;40219;-73
2022/08/09 03:14:52;;;;;;;9.45;5.93;;;;;;;19.99;61.70;100234.44;7619212;32;40474;-73
2022/08/09 03:19:09;;;;;;;7.12;5.28;;;;;;;19.69;62.45;100231.44;7632016;32;37978;-73
2022/08/09 03:23:45;;;;;;;10.65;5.43;;;;;;;19.92;61.52;100231.34;7631095;32;37495;-73
2022/08/09 03:28:20;;;;;;;9.07;5.47;;;;;;;19.75;62.08;100230.19;7620821;32;39358;-73
2022/08/09 03:32:36;;;;;;;7.95;5.32;;;;;;;19.67;62.28;100222.66;7618958;32;38079;-73
2022/08/09 03:36:54;;;;;;;10.00;5.18;;;;;;;19.68;62.25;100227.06;7618470;32;38694;-74
2022/08/09 03:41:17;;;;;;;10.00;6.00;;;;;;;19.52;62.86;100227.53;7631433;32;37943;-74
2022/08/09 03:45:35;;;;;;;13.38;5.90;;;;;;;19.66;62.41;100232.09;7630556;32;39399;-73
2022/08/09 03:50:11;;;;;;;9.68;5.55;;;;;;;19.49;63.07;100232.88;7631375;32;40312;-73
2022/08/09 03:54:32;;;;;;;7.97;5.28;;;;;;;19.57;62.87;100231.25;7617181;32;38151;-73
2022/08/09 03:58:49;;;;;;;7.72;5.25;;;;;;;19.56;62.90;100241.50;7631786;32;37406;-73
2022/08/09 04:03:09;;;;;;;7.87;5.22;;;;;;;19.36;63.82;100234.63;7618358;32;39331;-73
2022/08/09 04:07:34;;;;;;;12.80;5.55;;;;;;;19.47;63.66;100241.50;7631486;32;40662;-73
2022/08/09 04:12:20;;;;;;;10.95;5.72;;;;;;;19.43;63.81;100239.69;7630616;32;38361;-73
2022/08/09 04:16:46;;;;;;;11.70;5.35;;;;;;;19.63;63.13;100239.09;7631243;32;37842;-73
2022/08/09 04:21:02;;;;;;;16.30;6.00;;;;;;;19.60;63.20;100236.97;7631521;32;39410;-74
2022/08/09 04:25:19;;;;;;;9.35;5.22;;;;;;;19.52;63.52;100249.63;7630889;32;39987;-73
2022/08/09 04:29:36;;;;;;;8.63;5.32;;;;;;;19.55;63.54;100233.53;7631001;32;38262;-73
2022/08/09 04:33:54;;;;;;;8.98;5.35;;;;;;;19.43;64.01;100234.94;7630657;32;37139;-73
2022/08/09 04:38:14;;;;;;;8.65;4.90;;;;;;;19.68;63.19;100240.91;7630697;32;39421;-73
2022/08/09 04:42:33;;;;;;;8.98;5.80;;;;;;;19.59;63.81;100245.56;7630194;32;40959;-73
2022/08/09 04:46:51;;;;;;;8.57;5.43;;;;;;;19.62;63.64;100247.69;7630101;32;38602;-73
2022/08/09 04:51:15;;;;;;;8.43;5.55;;;;;;;19.73;63.54;100248.22;7630435;32;37892;-73
2022/08/09 04:55:31;;;;;;;7.87;5.60;;;;;;;19.82;63.37;100255.44;7631761;32;39364;-73
2022/08/09 05:00:08;;;;;;;11.15;5.60;;;;;;;19.92;63.21;100253.47;7633616;32;40365;-71
2022/08/09 05:04:24;;;;;;;10.82;6.18;;;;;;;20.06;63.09;100256.94;7633208;32;37676;-72
2022/08/09 05:08:46;;;;;;;8.27;5.70;;;;;;;20.22;62.64;100257.25;7633708;32;37877;-71
2022/08/09 05:13:02;;;;;;;10.00;6.87;;;;;;;20.24;62.21;100257.75;7633631;32;39439;-72
2022/08/09 05:17:19;;;;;;;9.88;6.47;;;;;;;20.20;62.22;100263.13;7631134;32;40011;-73
2022/08/09 05:21:55;;;;;;;11.68;5.55;;;;;;;20.30;61.99;100261.16;7621002;32;39202;-73
2022/08/09 05:26:11;;;;;;;9.65;6.07;;;;;;;20.57;61.21;100260.81;7632989;32;37294;-72
2022/08/09 05:30:41;;;;;;;15.75;5.93;;;;;;;20.98;60.18;100269.75;7633536;32;40170;-72
2022/08/09 05:35:04;;;;;;;10.82;6.70;;;;;;;20.95;60.28;100262.88;7632624;32;40063;-73
2022/08/09 05:39:20;;;;;;;9.60;5.60;;;;;;;21.27;58.95;100270.97;7633142;32;37716;-72
2022/08/09 05:43:44;;;;;;;8.57;5.85;;;;;;;21.50;58.30;100265.97;7633143;32;37260;-75
2022/08/09 05:48:04;;;;;;;11.73;6.57;;;;;;;21.52;58.41;100272.00;7632955;32;39034;-74
2022/08/09 05:52:23;;;;;;;9.13;6.03;;;;;;;21.58;58.36;100276.22;7633079;32;40829;-73
2022/08/09 05:56:39;;;;;;;11.00;6.45;;;;;;;21.59;58.53;100277.84;7632952;32;38808;-73
2022/08/09 06:01:10;;;;;;;12.18;6.75;;;;;;;21.49;58.48;100278.22;7633259;32;36799;-74
2022/08/09 06:05:32;;;;;;;12.77;6.85;;;;;;;21.46;58.71;100285.25;7632466;32;39430;-73
2022/08/09 06:10:09;;;;;;;10.18;6.78;;;;;;;21.59;58.88;100288.94;7632577;32;39800;-74
2022/08/09 06:14:33;;;;;;;10.93;6.93;;;;;;;21.97;58.10;100276.94;7632250;32;38996;-73
2022/08/09 06:18:49;;;;;;;10.05;7.30;;;;;;;21.91;58.29;100283.88;7632598;32;37067;-74
2022/08/09 06:23:05;;;;;;;12.35;7.62;;;;;;;21.80;58.53;100282.62;7632790;32;40128;-74
2022/08/09 06:27:26;;;;;;;14.85;6.50;;;;;;;21.98;57.96;100273.03;7632442;32;40043;-74
2022/08/09 06:31:58;;;;;;;13.80;6.68;;;;;;;22.20;57.69;100280.25;7632632;32;38782;-74
2022/08/09 06:36:34;;;;;;;10.25;6.55;;;;;;;22.13;57.69;100274.41;7630409;32;37478;-74
2022/08/09 06:40:50;;;;;;;10.77;7.15;;;;;;;22.15;58.16;100276.84;7632148;32;39269;-72
2022/08/09 06:45:10;;;;;;;13.38;6.50;;;;;;;22.30;58.17;100273.47;7632062;32;39984;-74
2022/08/09 06:49:46;;;;;;;11.93;6.70;;;;;;;22.10;58.72;100269.53;7631873;32;39664;-73
2022/08/09 06:54:22;;;;;;;11.25;6.50;;;;;;;22.36;57.47;100276.88;7631960;32;37658;-73
2022/08/09 06:58:41;;;;;;;14.18;7.15;;;;;;;22.35;58.06;100270.50;7630172;32;40058;-75
2022/08/09 07:03:17;;;;;;;11.60;7.45;;;;;;;22.57;58.57;100271.28;7628491;32;39994;-75
2022/08/09 07:07:33;;;;;;;10.80;6.70;;;;;;;22.46;58.18;100277.28;7628677;32;37758;-74
2022/08/09 07:12:10;;;;;;;12.60;8.13;;;;;;;22.86;57.31;100273.94;7629318;32;37486;-74
2022/08/09 07:16:33;;;;;;;14.70;7.72;;;;;;;22.14;59.54;100270.47;7631540;32;39356;-76
2022/08/09 07:21:03;;;;;;;12.30;6.68;;;;;;;22.55;58.40;100273.59;7632069;32;40173;-73
2022/08/09 07:25:23;;;;;;;13.45;6.18;;;;;;;23.06;56.29;100277.03;7631727;32;38081;-73
2022/08/09 07:29:39;;;;;;;10.70;6.22;;;;;;;22.56;55.92;100280.78;7628233;32;36676;-77
2022/08/09 07:33:57;;;;;;;9.35;6.40;;;;;;;22.96;55.41;100274.69;7627953;32;39515;-75
2022/08/09 07:38:14;;;;;;;10.32;6.60;;;;;;;22.90;55.49;100278.81;7627697;32;39834;-74
2022/08/09 07:42:31;;;;;;;9.90;6.00;;;;;;;23.39;54.65;100284.50;7630121;32;37996;-74
2022/08/09 07:46:47;;;;;;;11.50;5.90;;;;;;;23.50;54.06;100279.28;7631634;32;37841;-75
2022/08/09 07:51:04;;;;;;;9.38;5.82;;;;;;;23.98;52.71;100270.13;7631708;32;39357;-75
2022/08/09 07:55:40;;;;;;;11.05;5.12;;;;;;;23.52;53.50;100276.97;7631041;32;40137;-75
2022/08/09 08:00:18;;;;;;;6.25;4.22;;;;;;;23.33;53.67;100269.19;7630215;32;38322;-76
2022/08/09 08:04:51;;;;;;;7.43;3.90;;;;;;;24.05;51.20;100266.75;7630860;32;37078;-74
2022/08/09 08:09:08;;;;;;;6.87;4.18;;;;;;;24.80;49.16;100261.72;7631085;32;39921;-75
2022/08/09 08:13:44;;;;;;;7.72;3.60;;;;;;;25.21;48.77;100254.03;7604994;32;39997;-74
2022/08/09 08:18:12;;;;;;;9.27;4.10;;;;;;;25.91;44.60;100258.94;7618220;32;38075;-75
2022/08/09 08:22:29;;;;;;;18.48;3.97;;;;;;;26.49;42.91;100254.56;7627721;32;37332;-76
2022/08/09 08:26:47;;;;;;;6.78;3.50;;;;;;;26.77;41.67;100248.78;7630271;32;39318;-75
2022/08/09 08:31:11;;;;;;;5.10;3.30;;;;;;;27.37;40.88;100255.81;7635109;32;40027;-76
2022/08/09 08:35:30;;;;;;;8.07;3.62;;;;;;;27.05;39.38;100242.06;7638957;32;39195;-76
2022/08/09 08:40:07;;;;;;;6.68;3.50;;;;;;;27.64;39.53;100260.25;7626688;32;37172;-74
2022/08/09 08:44:24;;;;;;;9.63;3.85;;;;;;;28.04;39.60;100258.84;7638636;32;40048;-76
2022/08/09 08:48:44;;;;;;;7.10;3.72;;;;;;;28.15;38.01;100256.22;7638927;32;41199;-76
2022/08/09 08:53:09;;;;;;;6.12;3.45;;;;;;;28.48;38.77;100249.00;7638723;32;38894;-77
2022/08/09 08:57:30;;;;;;;;;;;;;;;28.63;37.45;100250.00;7626108;32;37116;-77
2022/08/09 09:01:50;;;;;;;6.50;3.70;;;;;;;29.16;36.41;100237.72;7638012;32;39400;-76
2022/08/09 09:06:12;;;;;;;7.90;3.67;;;;;;;29.02;34.52;100243.97;7625161;32;40579;-74
2022/08/09 09:10:30;;;;;;;5.97;3.80;;;;;;;29.34;34.38;100237.88;7637213;32;38178;-76
2022/08/09 09:14:47;;;;;;;6.60;3.37;;;;;;;29.68;34.80;100241.31;7636334;32;36848;-76
2022/08/09 09:19:08;;;;;;;7.47;3.83;;;;;;;29.59;34.47;100238.06;7637489;32;39494;-75
2022/08/09 09:23:45;;;;;;;4.35;3.10;;;;;;;29.99;34.02;100243.94;7636274;32;41326;-74
2022/08/09 09:28:13;;;;;;;8.80;3.65;;;;;;;29.89;34.47;100239.88;7638018;32;38026;-74
2022/08/09 09:33:00;;;;;;;10.40;3.87;;;;;;;29.92;33.36;100234.25;7635376;32;38326;-76
2022/08/09 09:37:29;;;;;;;10.63;3.50;;;;;;;30.35;32.94;100239.31;7634578;32;39478;-77
2022/08/09 09:41:47;;;;;;;7.12;3.97;;;;;;;30.03;32.41;100234.34;7631469;32;39000;-79
2022/08/09 09:46:05;;;;;;;4.82;3.22;;;;;;;30.38;33.14;100232.91;7616324;32;37708;-76
2022/08/09 09:50:43;;;;;;;6.68;3.62;;;;;;;30.74;30.97;100235.00;7630871;32;37660;-77
2022/08/09 09:55:08;;;;;;;5.15;3.20;;;;;;;30.96;30.98;100236.69;7633368;32;39327;-78
2022/08/09 09:59:45;;;;;;;9.15;3.67;;;;;;;30.87;31.36;100236.22;7621128;32;40727;-79
2022/08/09 10:04:15;;;;;;;6.18;3.50;;;;;;;31.14;29.50;100233.06;7632755;32;38846;-77
2022/08/09 10:08:48;;;;;;;7.65;3.65;;;;;;;30.83;32.70;100230.59;7632737;32;37159;-77
2022/08/09 10:13:10;;;;;;;10.55;3.87;;;;;;;30.66;32.69;100226.53;7633011;32;40050;-76
2022/08/09 10:17:40;;;;;;;8.40;3.40;;;;;;;30.63;32.11;100227.34;7617328;32;40751;-77
2022/08/09 10:22:11;;;;;;;6.68;3.40;;;;;;;30.07;32.54;100217.47;7617783;32;38000;-76
2022/08/09 10:26:28;;;;;;;5.55;3.03;;;;;;;30.78;31.71;100221.75;7630056;32;37178;-77
2022/08/09 10:30:44;;;;;;;5.05;2.83;;;;;;;30.94;30.24;100213.75;7630713;32;39053;-81
2022/08/09 10:35:20;;;;;;;7.03;2.97;;;;;;;31.19;30.08;100212.97;7632454;32;40053;-80
2022/08/09 10:39:38;;;;;;;3.80;2.65;;;;;;;31.19;29.82;100212.97;7631035;32;37690;-81
2022/08/09 10:44:03;;;;;;;5.20;2.42;;;;;;;31.11;30.50;100212.12;7615522;32;37655;-81
2022/08/09 10:48:43;;;;;;;6.60;3.15;;;;;;;31.67;28.88;100203.25;7629236;32;39052;-81
2022/08/09 10:53:35;;;;;;;5.25;3.10;;;;;;;32.12;28.17;100195.88;7616861;32;39881;-81
2022/08/09 10:57:55;;;;;;;7.65;3.60;;;;;;;32.62;27.63;100196.87;7628838;32;37536;-80
2022/08/09 11:02:35;;;;;;;5.55;3.35;;;;;;;32.62;28.04;100194.03;7618109;32;36697;-81
2022/08/09 11:07:11;;;;;;;8.60;3.72;;;;;;;32.28;28.29;100203.06;7631838;32;39449;-81
2022/08/09 11:11:58;;;;;;;6.25;2.78;;;;;;;31.95;29.08;100202.38;7631481;32;40813;-81
2022/08/09 11:16:46;;;;;;;6.50;3.15;;;;;;;31.90;28.02;100188.69;7627047;32;37530;-81
2022/08/09 11:21:06;;;;;;;5.47;3.22;;;;;;;32.35;28.15;100183.28;7600886;32;36862;-81
2022/08/09 11:25:30;;;;;;;7.00;3.20;;;;;;;32.65;27.09;100191.19;7618821;32;39095;-81
2022/08/09 11:30:04;;;;;;;8.05;3.15;;;;;;;32.70;27.16;100173.00;7632161;32;39873;-81
2022/08/09 11:34:47;;;;;;;4.78;3.08;;;;;;;32.43;26.34;100173.56;7631586;32;39351;-81
2022/08/09 11:39:06;;;;;;;5.12;3.30;;;;;;;32.60;26.49;100165.38;7619537;32;37589;-81
2022/08/09 11:43:29;;;;;;;8.02;3.05;;;;;;;32.50;27.15;100167.88;7632040;32;40064;-82
2022/08/09 11:47:56;;;;;;;7.07;3.50;;;;;;;33.40;27.54;100170.00;7631903;32;40779;-81
2022/08/09 11:52:19;;;;;;;9.20;3.45;;;;;;;32.50;26.74;100165.06;7631892;32;38084;-82
2022/08/09 11:57:21;;;;;;;6.62;3.20;;;;;;;33.53;27.07;100161.81;7631589;32;38303;-81
2022/08/09 12:01:57;;;;;;;5.47;2.97;;;;;;;33.75;26.21;100156.72;7622161;32;39577;-82
2022/08/09 12:06:34;;;;;;;5.50;2.75;;;;;;;34.26;24.85;100161.78;7619372;32;41323;-82
2022/08/09 12:10:52;;;;;;;5.72;3.20;;;;;;;34.28;25.34;100159.31;7631458;32;38561;-82
2022/08/09 12:15:24;;;;;;;6.72;2.95;;;;;;;34.38;23.86;100159.16;7631459;32;37116;-82
2022/08/09 12:20:10;;;;;;;4.22;2.78;;;;;;;34.45;23.87;100157.47;7630929;32;40389;-81
2022/08/09 12:24:31;;;;;;;3.70;2.75;;;;;;;34.37;23.44;100156.75;7631176;32;40034;-81
2022/08/09 12:28:51;;;;;;;12.00;3.10;;;;;;;34.48;24.01;100150.94;7631210;32;38719;-82
2022/08/09 12:33:27;;;;;;;3.83;2.45;;;;;;;34.73;23.69;100144.91;7630662;32;37428;-81
2022/08/09 12:38:20;;;;;;;4.12;2.62;;;;;;;34.55;24.07;100139.53;7619274;32;39805;-81
2022/08/09 12:42:54;;;;;;;3.22;2.80;;;;;;;34.74;22.27;100129.53;7630813;32;39672;-81
2022/08/09 12:47:11;;;;;;;6.10;2.72;;;;;;;33.67;23.52;100126.97;7617094;32;37948;-81
2022/08/09 12:51:29;;;;;;;4.82;2.92;;;;;;;33.70;25.29;100130.94;7630566;32;37364;-81
2022/08/09 12:56:19;;;;;;;6.53;2.83;;;;;;;33.53;24.61;100130.72;7629325;32;40618;-81
2022/08/09 13:00:55;;;;;;;8.00;2.85;;;;;;;33.36;25.29;100129.69;7629748;32;41112;-81
2022/08/09 13:05:12;;;;;;;4.68;2.80;;;;;;;33.11;25.29;100129.91;7630211;32;37833;-81
2022/08/09 13:09:30;;;;;;;5.50;2.80;;;;;;;32.88;25.99;100128.50;7630128;32;37605;-81
2022/08/09 13:13:56;;;;;;;7.00;2.70;;;;;;;32.82;26.42;100124.50;7630424;32;39369;-81
2022/08/09 13:18:49;;;;;;;6.62;3.00;;;;;;;32.73;26.24;100127.03;7632785;32;41330;-81
2022/08/09 13:23:08;;;;;;;7.53;3.50;;;;;;;32.70;26.98;100117.38;7633570;32;37771;-81
2022/08/09 13:27:44;;;;;;;4.25;2.80;;;;;;;32.57;26.95;100119.84;7633421;32;37430;-81
2022/08/09 13:32:10;;;;;;;6.57;3.37;;;;;;;32.50;26.48;100113.47;7621229;32;40316;-81
2022/08/09 13:36:34;;;;;;;;;;;;;;;32.39;27.01;100113.53;7633880;32;40086;-81
2022/08/09 13:41:00;;;;;;;5.90;2.58;;;;;;;32.53;26.42;100113.44;7633366;32;39112;-81
2022/08/09 13:45:36;;;;;;;6.30;2.70;;;;;;;32.57;27.05;100116.25;7632479;32;37214;-81
2022/08/09 13:50:17;;;;;;;4.75;2.75;;;;;;;32.74;26.28;100112.50;7632891;32;39730;-81
2022/08/09 13:54:45;;;;;;;4.32;2.37;;;;;;;32.61;26.66;100113.41;7633138;32;39980;-81
2022/08/09 13:59:15;;;;;;;4.12;2.85;;;;;;;32.84;25.97;100113.62;7633125;32;37483;-81
2022/08/09 14:03:40;;;;;;;8.25;2.50;;;;;;;32.88;25.66;100117.22;7633327;32;37751;-81
2022/08/09 14:08:16;;;;;;;3.70;2.30;;;;;;;32.79;25.13;100108.44;7632744;32;39492;-81
2022/08/09 14:12:33;;;;;;;8.52;2.58;;;;;;;32.80;25.94;100107.19;7632943;32;40049;-81
2022/08/09 14:16:49;;;;;;;8.95;2.70;;;;;;;32.88;26.62;100105.91;7632767;32;37881;-81
2022/08/09 14:21:05;;;;;;;4.50;2.53;;;;;;;33.40;25.04;100107.06;7632868;32;37341;-81
2022/08/09 14:25:23;;;;;;;4.75;2.60;;;;;;;33.42;24.72;100110.25;7632893;32;39536;-81
2022/08/09 14:29:46;;;;;;;5.78;2.40;;;;;;;33.46;26.06;100111.00;7632455;32;40814;-81
2022/08/09 14:34:23;;;;;;;10.18;3.30;;;;;;;33.83;24.37;100106.56;7632222;32;38947;-81
2022/08/09 14:38:48;;;;;;;6.93;2.60;;;;;;;33.89;23.18;100104.84;7632613;32;37931;-81
2022/08/09 14:43:07;;;;;;;5.68;2.75;;;;;;;33.55;25.33;100102.03;7632776;32;39610;-82
2022/08/09 14:47:30;;;;;;;7.85;2.70;;;;;;;33.75;24.16;100107.88;7619638;32;39697;-82
2022/08/09 14:52:01;;;;;;;8.57;3.45;;;;;;;34.52;23.17;100101.53;7632425;32;38030;-82
2022/08/09 14:56:18;;;;;;;6.50;3.03;;;;;;;34.18;23.74;100104.47;7632550;32;37154;-81
2022/08/09 15:00:36;;;;;;;3.62;2.60;;;;;;;33.71;24.33;100107.91;7632392;32;39376;-81
2022/08/09 15:04:57;;;;;;;7.70;2.97;;;;;;;33.79;24.33;100105.78;7632506;32;40277;-81
2022/08/09 15:09:13;;;;;;;6.62;3.17;;;;;;;33.70;24.43;100091.37;7632333;32;37962;-82
2022/08/09 15:13:29;;;;;;;7.35;5.03;;;;;;;34.32;23.64;100084.47;7632287;32;37088;-81
2022/08/09 15:18:07;;;;;;;4.00;2.40;;;;;;;34.42;23.43;100091.97;7631820;32;39771;-82
2022/08/09 15:22:29;;;;;;;3.25;2.55;;;;;;;34.72;24.00;100084.66;7632250;32;40884;-82
2022/08/09 15:26:48;;;;;;;5.35;2.65;;;;;;;34.72;23.40;100081.00;7632048;32;37075;-82
2022/08/09 15:31:08;;;;;;;3.20;2.30;;;;;;;34.32;22.99;100087.28;7632238;32;36793;-82
2022/08/09 15:35:33;;;;;;;12.55;2.47;;;;;;;34.93;24.06;100086.31;7632101;32;40091;-82
2022/08/09 15:40:00;;;;;;;4.18;2.47;;;;;;;35.12;23.06;100079.09;7630530;32;40032;-82
2022/08/09 15:44:16;;;;;;;4.32;2.40;;;;;;;34.77;24.36;100083.34;7631639;32;37650;-82
2022/08/09 15:48:37;;;;;;;7.30;2.30;;;;;;;34.36;23.59;100087.25;7631928;32;38179;-82
2022/08/09 15:52:55;;;;;;;3.60;2.28;;;;;;;34.24;24.02;100080.94;7631797;32;39339;-82
2022/08/09 15:57:24;;;;;;;7.37;2.50;;;;;;;34.28;24.12;100080.09;7631689;32;40666;-82
2022/08/09 16:01:59;;;;;;;4.18;2.20;;;;;;;34.47;23.70;100075.75;7631572;32;37718;-82
2022/08/09 16:06:15;;;;;;;3.97;2.50;;;;;;;34.66;23.52;100077.06;7631600;32;37170;-82
2022/08/09 16:10:50;;;;;;;4.68;2.37;;;;;;;34.52;22.70;100086.59;7631533;32;39429;-82
2022/08/09 16:15:14;;;;;;;4.18;2.15;;;;;;;34.21;24.79;100084.63;7631353;32;39912;-82
2022/08/09 16:19:50;;;;;;;4.85;2.58;;;;;;;34.26;23.78;100083.34;7631299;32;38293;-82
2022/08/09 16:24:22;;;;;;;2.95;2.33;;;;;;;33.93;24.00;100083.00;7631349;32;37102;-81
2022/08/09 16:28:48;;;;;;;4.62;2.75;;;;;;;33.58;25.37;100082.22;7631137;32;40306;-82
2022/08/09 16:33:09;;;;;;;4.57;2.60;;;;;;;33.47;26.13;100085.16;7631100;32;39934;-82
2022/08/09 16:37:25;;;;;;;8.75;2.85;;;;;;;33.14;26.56;100100.88;7630994;32;38734;-81
2022/08/09 16:42:01;;;;;;;4.07;2.50;;;;;;;32.93;26.54;100102.66;7630232;32;38352;-81
2022/08/09 16:46:20;;;;;;;4.70;2.85;;;;;;;32.54;27.85;100091.66;7630263;32;39626;-81
2022/08/09 16:50:42;;;;;;;6.18;2.90;;;;;;;32.59;27.97;100104.53;7631546;32;41332;-80
2022/08/09 16:55:18;;;;;;;6.28;2.53;;;;;;;32.56;28.31;100097.69;7633479;32;38237;-81
2022/08/09 16:59:34;;;;;;;3.45;2.25;;;;;;;32.57;26.94;100102.91;7633909;32;37120;-81
2022/08/09 17:03:59;;;;;;;4.53;2.62;;;;;;;32.48;26.68;100104.63;7634002;32;39165;-81
2022/08/09 17:08:15;;;;;;;4.60;2.80;;;;;;;32.18;27.25;100103.19;7633774;32;40775;-80
2022/08/09 17:12:52;;;;;;;7.30;2.70;;;;;;;32.10;27.34;100105.25;7633305;32;39281;-80
2022/08/09 17:17:08;;;;;;;9.82;3.10;;;;;;;31.92;27.57;100102.50;7633740;32;37308;-81
2022/08/09 17:21:41;;;;;;;;;;;;;;;31.81;28.02;100113.84;7634021;32;39378;-80
2022/08/09 17:26:01;;;;;;;5.35;2.60;;;;;;;31.72;28.31;100105.03;7633705;32;41075;-80
2022/08/09 17:30:18;;;;;;;11.15;2.60;;;;;;;31.45;28.62;100108.28;7633348;32;37947;-80
2022/08/09 17:34:35;;;;;;;12.15;2.67;;;;;;;31.16;29.70;100106.75;7633520;32;37014;-80
2022/08/09 17:39:13;;;;;;;8.20;2.80;;;;;;;31.34;29.51;100113.16;7633147;32;39624;-80
2022/08/09 17:43:30;;;;;;;5.85;2.50;;;;;;;31.06;30.31;100117.66;7620332;32;39021;-80
2022/08/09 17:47:52;;;;;;;8.70;2.97;;;;;;;30.86;30.80;100113.62;7633242;32;39174;-80
2022/08/09 17:52:10;;;;;;;8.52;2.67;;;;;;;30.62;31.63;100121.63;7632902;32;36101;-77
2022/08/09 17:56:37;;;;;;;4.55;2.35;;;;;;;30.34;32.55;100131.63;7633180;32;40181;-77
2022/08/09 18:00:58;;;;;;;5.37;2.60;;;;;;;30.23;33.07;100125.16;7631812;32;40856;-78
2022/08/09 18:05:15;;;;;;;9.32;2.80;;;;;;;30.11;33.46;100133.97;7632227;32;38778;-78
2022/08/09 18:09:31;;;;;;;4.22;2.65;;;;;;;29.95;33.89;100154.78;7619634;32;37005;-76
2022/08/09 18:13:56;;;;;;;5.78;2.35;;;;;;;29.74;32.74;100144.22;7633083;32;39504;-77
2022/08/09 18:18:28;;;;;;;3.17;1.90;;;;;;;29.21;31.86;100167.19;7622206;32;354076;-77
2022/08/09 18:22:49;;;;;;;4.15;2.20;;;;;;;29.20;31.10;100171.19;7632147;32;37875;-76
2022/08/09 18:27:08;;;;;;;3.12;1.90;;;;;;;28.90;31.06;100186.16;7632673;32;35686;-75
2022/08/09 18:31:33;;;;;;;3.87;1.80;;;;;;;28.72;30.15;100188.81;7632801;32;39344;-76
2022/08/09 18:36:10;;;;;;;2.87;1.60;;;;;;;28.51;30.02;100200.59;7632516;32;39868;-77
2022/08/09 18:40:41;;;;;;;3.17;1.58;;;;;;;28.25;30.51;100226.69;7632260;32;37932;-78
2022/08/09 18:44:59;;;;;;;2.10;1.58;;;;;;;27.88;31.43;100245.00;7632350;32;37545;-77
2022/08/09 18:49:23;;;;;;;4.65;1.50;;;;;;;27.44;32.55;100250.34;7632614;32;40257;-77
2022/08/09 18:53:39;;;;;;;2.75;1.73;;;;;;;27.06;33.01;100249.28;7632334;32;39841;-77
2022/08/09 18:58:15;;;;;;;4.07;1.75;;;;;;;26.75;33.63;100265.09;7631669;32;39098;-76
2022/08/09 19:02:51;;;;;;;3.25;1.45;;;;;;;26.39;34.40;100261.59;7632344;32;37127;-75
2022/08/09 19:07:11;;;;;;;4.47;1.80;;;;;;;26.39;34.74;100278.34;7632073;32;38355;-75
2022/08/09 19:11:33;;;;;;;4.43;1.60;;;;;;;25.90;35.23;100293.59;7629607;32;39927;-75
2022/08/09 19:15:53;;;;;;;11.60;2.07;;;;;;;25.61;35.73;100290.16;7631851;32;37970;-75
2022/08/09 19:20:12;;;;;;;2.53;1.42;;;;;;;24.87;36.97;100309.31;7631517;32;39220;-76
2022/08/09 19:24:29;;;;;;;4.05;1.73;;;;;;;25.29;35.96;100311.66;7631467;32;39853;-75
2022/08/09 19:29:09;;;;;;;3.05;1.80;;;;;;;25.43;35.67;100300.88;7620649;32;39899;-74
2022/08/09 19:33:35;;;;;;;2.33;1.45;;;;;;;25.51;34.98;100307.44;7631493;32;37990;-75
2022/08/09 19:37:53;;;;;;;4.75;1.50;;;;;;;25.35;35.30;100323.38;7618287;32;37150;-75
2022/08/09 19:42:13;;;;;;;3.17;1.33;;;;;;;25.38;35.47;100326.25;7631712;32;39223;-75
2022/08/09 19:46:35;;;;;;;3.47;1.87;;;;;;;25.28;35.03;100343.53;7631340;32;40593;-75
2022/08/09 19:51:06;;;;;;;3.42;1.45;;;;;;;25.24;34.87;100343.41;7631809;32;38077;-74
2022/08/09 19:55:23;;;;;;;5.80;1.42;;;;;;;25.17;34.31;100345.19;7631817;32;37912;-75
2022/08/09 19:59:59;;;;;;;3.33;1.50;;;;;;;25.10;34.06;100337.44;7631103;32;39703;-74
2022/08/09 20:04:22;;;;;;;4.55;1.62;;;;;;;25.28;33.32;100349.09;7630836;32;39959;-76
2022/08/09 20:08:53;;;;;;;2.20;1.30;;;;;;;25.19;33.89;100351.22;7629352;32;38030;-76
2022/08/09 20:13:12;;;;;;;2.20;1.40;;;;;;;25.23;34.03;100346.53;7631385;32;38006;-75
2022/08/09 20:17:35;;;;;;;1.90;1.30;;;;;;;25.39;33.61;100353.00;7631422;32;39293;-75
2022/08/09 20:22:03;;;;;;;4.30;1.20;;;;;;;25.43;33.74;100356.69;7630838;32;39888;-74
2022/08/09 20:26:24;;;;;;;3.40;1.52;;;;;;;25.52;33.42;100352.91;7630120;32;37910;-75
2022/08/09 20:30:42;;;;;;;2.40;1.45;;;;;;;25.32;34.02;100361.19;7630900;32;37810;-75
2022/08/09 20:35:06;;;;;;;2.03;1.30;;;;;;;25.36;33.72;100362.09;7630928;32;39444;-74